METAR Data
IDs: Format: Raw Decoded Include TAF

Data at: 1458 UTC 10 Aug 2022

KERV 101455Z AUTO 16005KT 10SM CLR 28/20 A3015 RMK AO2 T02820203
KERV 101435Z AUTO 20004KT 10SM CLR 27/20 A3015 RMK AO2 T02730202
KERV 101415Z AUTO 18005KT 10SM CLR 27/21 A3015 RMK AO2 T02670205
KERV 101355Z AUTO 17004KT 10SM CLR 26/21 A3014 RMK AO2 T02600207
KERV 101335Z AUTO 16005KT 10SM CLR 25/21 A3014 RMK AO2 T02500205
KERV 101315Z AUTO 18004KT 10SM CLR 24/20 A3014 RMK AO2 T02430202
KERV 101255Z AUTO 17004KT 10SM CLR 24/20 A3014 RMK AO2 T02400201
KERV 101235Z AUTO 00000KT 10SM CLR 23/20 A3014 RMK AO2 T02330200
KERV 101215Z AUTO 16004KT 10SM CLR 23/20 A3013 RMK AO2 T02280200
KERV 101155Z AUTO 00000KT 10SM CLR 23/20 A3012 RMK AO2 T02310200 10281 20230
KERV 101135Z AUTO 16004KT 10SM CLR 23/20 A3012 RMK AO2 T02330202
KERV 101115Z AUTO 17005KT 10SM CLR 24/20 A3011 RMK AO2 T02360203
No TAF found for KERV

KLUD 101435Z AUTO 12003KT 7SM CLR 28/21 A3011 RMK AO2 T02800210
KLUD 101415Z AUTO 08004KT 7SM CLR 27/21 A3011 RMK AO2 T02710211
KLUD 101355Z AUTO 10005KT 10SM CLR 26/21 A3011 RMK AO2 T02590211
KLUD 101335Z AUTO 09004KT 10SM CLR 25/21 A3010 RMK AO2 T02450208
KLUD 101315Z AUTO 09004KT 10SM CLR 24/21 A3010 RMK AO2 T02390206
KLUD 101255Z AUTO 09003KT 10SM SCT085 23/21 A3010 RMK AO2 T02320205
KLUD 101235Z AUTO 06003KT 5SM BR SCT085 23/20 A3009 RMK AO2 T02270203
KLUD 101215Z AUTO 00000KT 7SM CLR 23/20 A3009 RMK AO2 T02250201
KLUD 101155Z AUTO 00000KT 10SM SCT085 23/20 A3008 RMK AO2 T02250201 10249 20224
KLUD 101140Z AUTO 00000KT 10SM CLR 23/20 A3008 RMK AO2 T02250200
KLUD 101115Z AUTO 00000KT 7SM CLR 23/20 A3007 RMK AO2 T02260200
No TAF found for KLUD

KBVO 101453Z AUTO 06003KT 10SM CLR 28/23 A3015 RMK AO2 SLP198 T02830228 51007
KBVO 101353Z AUTO 00000KT 10SM CLR 26/23 A3015 RMK AO2 SLP198 T02610228
KBVO 101253Z AUTO 00000KT 10SM CLR 23/22 A3014 RMK AO2 SLP195 T02330222
KBVO 101153Z AUTO 00000KT 10SM CLR 19/19 A3013 RMK AO2 SLP190 T01940194 10244 20194 53015

KBVO 101120Z 1012/1112 00000KT P6SM SKC
  TEMPO 1012/1014 4SM BR
  FM101500 05005KT P6SM FEW050
  FM110100 VRB03KT P6SM SKC


KMKC 101354Z 00000KT 10SM CLR 23/19 A3020 RMK AO2 SLP218 T02330189
KMKC 101254Z 08003KT 10SM CLR 21/18 A3018 RMK AO2 SLP212 T02110178
KMKC 101154Z 02003KT 10SM CLR 19/17 A3016 RMK AO2 SLP206 T01890167 10228 20183 53009

KMKC 101124Z 1012/1112 06006KT P6SM SKC
  FM110200 12005KT P6SM SKC


KCWI 101456Z AUTO 30005KT 10SM CLR 22/19 A3022 RMK AO2 SLP234 T02220189 51009
KCWI 101356Z AUTO 00000KT 10SM CLR 20/18 A3022 RMK AO2 SLP233 T02000183
KCWI 101256Z AUTO 34003KT 10SM CLR 18/18 A3021 RMK AO2 SLP230 T01780178
KCWI 101156Z AUTO 00000KT 10SM CLR 14/ A3020 RMK AO2 SLP226 T0139 10167 20122 53009
No TAF found for KCWI

KOSH 101453Z 28007KT 10SM CLR 24/18 A3015 RMK AO2 SLP199 T02390178 50003
KOSH 101353Z 28006KT 10SM CLR 22/17 A3015 RMK AO2 SLP201 T02170167
KOSH 101253Z 25004KT 10SM CLR 19/16 A3014 RMK AO2 SLP197 T01940156
KOSH 101153Z 25003KT 10SM CLR 17/14 A3014 RMK AO2 SLP196 T01720144 10172 20150 53006
No TAF found for KOSH